Time;durP1;ratioP1;P1;durP2;ratioP2;P2;SDS_P1;SDS_P2;PMS_P1;PMS_P2;Temp;Humidity;BMP_temperature;BMP_pressure;BME280_temperature;BME280_humidity;BME280_pressure;Samples;Min_cycle;Max_cycle;Signal;HPM_P1;HPM_P2
2023/07/08 06:42:30;;;;;;;20.70;13.50;;;;;;;31.75;100.00;100228.45;106347;1257;65191;-91
2023/07/08 06:45:28;;;;;;;22.00;14.50;;;;;;;31.92;100.00;100231.58;106404;1260;61298;-92
2023/07/08 06:48:17;;;;;;;21.10;14.90;;;;;;;32.09;100.00;100235.33;106201;1257;61365;-91
2023/07/08 06:51:07;;;;;;;18.50;13.30;;;;;;;32.26;100.00;100235.95;106237;1256;66032;-91
2023/07/08 06:53:55;;;;;;;21.20;14.80;;;;;;;32.44;100.00;100242.05;106144;1254;61261;-92
2023/07/08 06:56:43;;;;;;;18.60;14.20;;;;;;;32.58;100.00;100247.55;106384;1255;64408;-91
2023/07/08 06:59:33;;;;;;;17.60;13.30;;;;;;;32.64;100.00;100249.84;106287;1253;61269;-91
2023/07/08 07:02:21;;;;;;;21.40;15.60;;;;;;;32.79;100.00;100252.44;106478;1257;61474;-91
2023/07/08 07:05:09;;;;;;;17.10;13.60;;;;;;;32.79;100.00;100262.30;106398;1256;66034;-89
2023/07/08 07:07:58;;;;;;;18.20;13.10;;;;;;;32.69;100.00;100263.64;106499;1258;61326;-91
2023/07/08 07:10:46;;;;;;;19.30;13.80;;;;;;;32.64;100.00;100264.31;106586;1255;64323;-90
2023/07/08 07:13:35;;;;;;;18.90;13.20;;;;;;;32.70;100.00;100269.19;106425;1251;61294;-90
2023/07/08 07:16:24;;;;;;;17.30;13.90;;;;;;;32.68;100.00;100272.23;106356;1258;61176;-90
2023/07/08 07:19:12;;;;;;;17.10;11.80;;;;;;;32.71;100.00;100275.15;107161;1251;64841;-90
2023/07/08 07:22:01;;;;;;;15.90;11.60;;;;;;;32.85;100.00;100279.61;106528;1257;61352;-90
2023/07/08 07:24:52;;;;;;;19.50;13.40;;;;;;;32.94;100.00;100280.16;106536;1257;64144;-90
2023/07/08 07:27:40;;;;;;;17.90;13.60;;;;;;;32.97;100.00;100281.05;106443;1251;60002;-91
2023/07/08 07:30:29;;;;;;;15.20;11.50;;;;;;;33.10;100.00;100281.79;106470;1251;61250;-91
2023/07/08 07:33:18;;;;;;;14.00;11.10;;;;;;;33.05;100.00;100289.89;106243;1254;66002;-91
2023/07/08 07:36:06;;;;;;;18.30;11.70;;;;;;;32.96;100.00;100293.30;106958;1259;61243;-90
2023/07/08 07:38:55;;;;;;;12.50;10.40;;;;;;;32.99;100.00;100298.09;106326;1260;62690;-90
2023/07/08 07:41:43;;;;;;;13.90;11.10;;;;;;;32.94;100.00;100303.94;106586;1256;61313;-92
2023/07/08 07:44:33;;;;;;;14.20;10.90;;;;;;;32.88;100.00;100307.05;106504;1254;61276;-92
2023/07/08 07:47:22;;;;;;;16.80;10.70;;;;;;;32.80;100.00;100304.64;106524;1255;64561;-93
2023/07/08 07:50:10;;;;;;;12.10;9.90;;;;;;;32.76;100.00;100305.52;106461;1254;61179;-93
2023/07/08 07:52:59;;;;;;;14.00;9.20;;;;;;;32.74;100.00;100313.41;106656;1257;62559;-91
2023/07/08 07:55:48;;;;;;;14.40;10.70;;;;;;;32.59;100.00;100315.71;106447;1254;61291;-92
2023/07/08 07:58:37;;;;;;;18.80;11.90;;;;;;;32.53;100.00;100316.71;106353;1257;61292;-92
2023/07/08 08:01:26;;;;;;;14.40;10.50;;;;;;;32.60;100.00;100315.79;106544;1259;66013;-93
2023/07/08 08:04:14;;;;;;;11.40;9.30;;;;;;;32.62;100.00;100313.23;106478;1254;61717;-92
2023/07/08 08:07:03;;;;;;;14.00;10.10;;;;;;;32.60;100.00;100311.10;106434;1251;64125;-91
2023/07/08 08:09:52;;;;;;;11.90;8.90;;;;;;;32.64;100.00;100312.96;106562;1257;61307;-91
2023/07/08 08:12:41;;;;;;;12.60;9.70;;;;;;;32.64;100.00;100318.53;106479;1253;61326;-92
2023/07/08 08:15:51;;;;;;;12.60;8.70;;;;;;;32.70;100.00;100318.08;106480;1255;66556;-95
2023/07/08 08:18:39;;;;;;;18.80;9.70;;;;;;;32.79;100.00;100328.98;106453;1254;61272;-92
2023/07/08 08:21:28;;;;;;;10.70;8.50;;;;;;;32.93;100.00;100330.38;106594;1251;64818;-92
2023/07/08 08:24:17;;;;;;;8.00;6.60;;;;;;;33.07;100.00;100327.45;106623;1254;61365;-91
2023/07/08 08:27:06;;;;;;;9.30;6.80;;;;;;;33.01;100.00;100327.23;106365;1255;61263;-93
2023/07/08 08:29:55;;;;;;;8.70;7.20;;;;;;;33.13;100.00;100321.92;106280;1254;74855;-91
2023/07/08 08:32:43;;;;;;;13.20;7.00;;;;;;;33.43;100.00;100315.73;106633;1257;61352;-93
2023/07/08 08:35:34;;;;;;;8.30;6.50;;;;;;;33.73;100.00;100308.96;106555;1253;62792;-91
2023/07/08 08:38:22;;;;;;;5.50;4.20;;;;;;;33.81;99.75;100298.02;106545;1257;61343;-94
2023/07/08 08:41:24;;;;;;;6.10;5.00;;;;;;;33.84;99.94;100294.85;106538;1250;61711;-93
2023/07/08 08:44:14;;;;;;;9.10;5.30;;;;;;;33.92;99.94;100294.52;106889;1254;64869;-93
2023/07/08 08:47:38;;;;;;;4.80;4.20;;;;;;;34.22;100.00;100297.94;106635;1257;61297;-93
2023/07/08 08:50:54;;;;;;;5.60;4.00;;;;;;;34.39;93.96;100300.81;106722;1256;63890;-93
2023/07/08 08:53:46;;;;;;;5.80;4.60;;;;;;;34.15;94.12;100306.98;106420;1259;61333;-93
2023/07/08 08:56:58;;;;;;;10.30;5.30;;;;;;;34.01;96.77;100307.56;106962;1254;61270;-95
2023/07/08 08:59:53;;;;;;;5.50;4.10;;;;;;;34.31;99.90;100308.14;106632;1256;66005;-92
2023/07/08 09:03:04;;;;;;;7.50;4.10;;;;;;;34.81;100.00;100300.92;106899;1258;61352;-93
2023/07/08 09:06:06;;;;;;;3.40;3.10;;;;;;;35.16;98.63;100303.84;107121;1255;62818;-94
2023/07/08 09:09:16;;;;;;;4.60;3.40;;;;;;;35.14;94.24;100308.59;106757;1254;60446;-94
2023/07/08 09:12:14;;;;;;;5.30;3.10;;;;;;;35.00;90.43;100312.31;106601;1259;61143;-95
2023/07/08 09:15:12;;;;;;;6.20;3.30;;;;;;;34.96;92.08;100313.98;106624;1260;64966;-92
2023/07/08 09:18:10;;;;;;;4.10;3.60;;;;;;;34.89;92.46;100309.30;106718;1253;61109;-94
2023/07/08 09:21:00;;;;;;;4.70;3.30;;;;;;;34.88;95.68;100308.20;106863;1257;62869;-94
2023/07/08 09:23:50;;;;;;;4.00;2.80;;;;;;;35.01;94.02;100311.46;106813;1257;61240;-93
2023/07/08 09:26:39;;;;;;;5.70;3.10;;;;;;;34.98;91.53;100311.16;106440;1258;61245;-94
2023/07/08 09:29:29;;;;;;;4.10;3.00;;;;;;;34.95;90.56;100312.30;106776;1254;65776;-94
2023/07/08 09:32:22;;;;;;;6.30;3.80;;;;;;;35.01;86.92;100312.52;106712;1258;61279;-95
2023/07/08 09:35:25;;;;;;;4.90;3.50;;;;;;;35.04;86.08;100319.15;106772;1251;62850;-94
2023/07/08 09:38:21;;;;;;;5.10;3.40;;;;;;;35.07;91.73;100317.05;107006;1255;61228;-93
2023/07/08 09:41:10;;;;;;;6.20;3.40;;;;;;;35.29;93.40;100312.44;106729;1251;61336;-94
2023/07/08 09:44:28;;;;;;;6.60;3.80;;;;;;;35.57;90.30;100321.15;106799;1258;66983;-94
2023/07/08 09:47:23;;;;;;;4.90;3.80;;;;;;;35.67;89.46;100319.79;106807;1252;61346;-93
2023/07/08 09:50:27;;;;;;;7.60;4.00;;;;;;;35.63;90.53;100318.94;107058;1257;63221;-94
2023/07/08 09:53:16;;;;;;;9.00;4.00;;;;;;;35.66;94.76;100317.13;107242;1254;61323;-94
2023/07/08 09:56:05;;;;;;;4.90;3.80;;;;;;;35.87;92.91;100311.73;106617;1257;61113;-94
2023/07/08 09:58:55;;;;;;;6.50;3.60;;;;;;;36.04;91.26;100315.05;106674;1254;65844;-94
2023/07/08 10:01:44;;;;;;;6.40;3.80;;;;;;;36.28;94.41;100308.29;106570;1257;61197;-94
2023/07/08 10:04:33;;;;;;;4.80;3.80;;;;;;;36.67;96.83;100301.39;106649;1257;63898;-94
2023/07/08 10:07:23;;;;;;;6.20;3.80;;;;;;;36.83;91.28;100303.41;106747;1254;61284;-95
2023/07/08 10:10:15;;;;;;;5.70;3.70;;;;;;;36.85;92.61;100309.74;106720;1254;61263;-94
2023/07/08 10:13:19;;;;;;;5.60;3.90;;;;;;;36.97;87.59;100317.52;106669;1258;64870;-94
2023/07/08 10:16:23;;;;;;;6.70;3.50;;;;;;;36.87;84.79;100322.45;106601;1258;61203;-93
2023/07/08 10:19:16;;;;;;;6.50;4.00;;;;;;;36.81;89.18;100323.64;106804;1260;62580;-95
2023/07/08 10:22:08;;;;;;;5.70;3.60;;;;;;;36.85;87.64;100326.19;106796;1253;61129;-94
2023/07/08 10:25:08;;;;;;;5.00;3.70;;;;;;;36.68;87.95;100326.17;107088;1251;61803;-93
2023/07/08 10:28:25;;;;;;;7.00;4.10;;;;;;;36.66;89.61;100330.46;107040;1256;66036;-94
2023/07/08 10:31:14;;;;;;;5.80;3.70;;;;;;;36.55;81.41;100336.92;106630;1257;61642;-93
2023/07/08 10:34:28;;;;;;;9.40;4.30;;;;;;;36.31;82.51;100345.34;106985;1251;64119;-95
2023/07/08 10:37:40;;;;;;;6.70;4.40;;;;;;;36.09;87.43;100348.83;106999;1257;61234;-93
2023/07/08 10:40:49;;;;;;;6.00;4.60;;;;;;;36.18;90.90;100352.78;106791;1254;61263;-94
2023/07/08 10:43:47;;;;;;;4.30;3.90;;;;;;;36.16;87.95;100352.86;106961;1251;65789;-95
2023/07/08 10:47:00;;;;;;;8.70;4.70;;;;;;;36.17;88.78;100349.58;107061;1252;61055;-96
2023/07/08 10:50:17;;;;;;;7.10;4.50;;;;;;;36.37;87.48;100347.10;107160;1251;65377;-93
2023/07/08 10:53:31;;;;;;;6.80;4.80;;;;;;;36.48;88.96;100348.58;107253;1257;61173;-94
2023/07/08 10:56:38;;;;;;;6.50;4.30;;;;;;;36.81;88.60;100346.02;107120;1258;61329;-93
2023/07/08 10:59:42;;;;;;;5.70;4.80;;;;;;;37.05;82.81;100344.40;106961;1256;66177;-94
2023/07/08 11:03:00;;;;;;;8.80;5.00;;;;;;;37.14;84.64;100348.35;106941;1251;61153;-94
2023/07/08 11:06:22;;;;;;;9.80;4.70;;;;;;;37.28;86.01;100356.63;106763;1251;63943;-93
2023/07/08 11:09:15;;;;;;;6.70;5.00;;;;;;;37.40;87.80;100362.02;106890;1257;61336;-93
2023/07/08 11:12:18;;;;;;;7.40;4.60;;;;;;;37.41;77.20;100362.08;107243;1253;61154;-94
2023/07/08 11:15:19;;;;;;;6.20;5.10;;;;;;;37.21;74.92;100357.61;107098;1255;67454;-94
2023/07/08 11:18:30;;;;;;;6.90;5.30;;;;;;;36.96;77.04;100353.17;107117;1257;61346;-94
2023/07/08 11:21:39;;;;;;;7.40;5.00;;;;;;;36.60;77.27;100355.46;107050;1254;62732;-94
2023/07/08 11:24:34;;;;;;;6.70;5.00;;;;;;;36.31;77.51;100353.55;107147;1253;61164;-95
2023/07/08 11:27:37;;;;;;;7.50;5.00;;;;;;;36.17;79.71;100356.46;107114;1253;60978;-94
2023/07/08 11:30:31;;;;;;;9.10;5.10;;;;;;;36.05;75.90;100366.29;106787;1253;64543;-94
2023/07/08 11:33:27;;;;;;;7.70;4.80;;;;;;;35.70;74.30;100372.94;107086;1254;61375;-96
2023/07/08 11:36:20;;;;;;;7.00;4.60;;;;;;;35.40;80.09;100366.46;106734;1253;63883;-94
2023/07/08 11:39:27;;;;;;;10.30;4.90;;;;;;;35.16;77.34;100373.77;107094;1254;61052;-95
2023/07/08 11:42:31;;;;;;;6.00;4.70;;;;;;;34.89;80.29;100368.27;107079;1253;60587;-95
2023/07/08 11:45:35;;;;;;;6.30;4.30;;;;;;;34.79;89.04;100373.42;107078;1253;74608;-93
2023/07/08 11:48:40;;;;;;;12.10;4.40;;;;;;;34.83;88.21;100381.17;106906;1257;59863;-95
2023/07/08 11:51:30;;;;;;;9.50;5.10;;;;;;;34.79;87.74;100378.77;106986;1255;63903;-94
2023/07/08 11:54:28;;;;;;;9.10;4.80;;;;;;;34.65;88.06;100382.31;106913;1254;61246;-94
2023/07/08 11:57:27;;;;;;;8.90;4.90;;;;;;;34.57;88.89;100383.73;106927;1260;61250;-93
2023/07/08 12:00:22;;;;;;;7.00;5.20;;;;;;;34.44;88.54;100391.61;106848;1254;64910;-94
2023/07/08 12:03:24;;;;;;;8.00;4.80;;;;;;;34.34;90.28;100393.65;107186;1253;61285;-93
2023/07/08 12:06:30;;;;;;;8.50;4.50;;;;;;;34.26;91.02;100395.72;106960;1254;71472;-95
2023/07/08 12:09:26;;;;;;;7.00;4.80;;;;;;;34.18;90.67;100395.99;107297;1256;61106;-93
2023/07/08 12:12:31;;;;;;;7.40;4.60;;;;;;;34.03;90.87;100392.60;107052;1253;59410;-94
2023/07/08 12:15:25;;;;;;;8.20;4.60;;;;;;;33.90;90.84;100386.36;106917;1253;65075;-93
2023/07/08 12:18:25;;;;;;;8.00;4.60;;;;;;;33.90;89.87;100385.26;107307;1254;61718;-94
2023/07/08 12:21:15;;;;;;;6.30;4.10;;;;;;;33.82;91.97;100386.48;107278;1253;64871;-94
2023/07/08 12:24:07;;;;;;;5.80;4.30;;;;;;;33.83;92.80;100382.88;107304;1259;61022;-93
2023/07/08 12:26:57;;;;;;;8.70;4.90;;;;;;;33.91;90.87;100390.40;107206;1253;59877;-94
2023/07/08 12:29:49;;;;;;;6.30;4.50;;;;;;;33.95;90.08;100390.54;107028;1259;66902;-94
2023/07/08 12:32:40;;;;;;;6.80;4.50;;;;;;;33.79;90.43;100395.67;106710;1256;61279;-94
2023/07/08 12:35:32;;;;;;;11.90;5.10;;;;;;;33.83;92.22;100395.35;106947;1253;63893;-94
2023/07/08 12:38:34;;;;;;;10.90;5.40;;;;;;;33.91;92.96;100393.38;107040;1256;61177;-94
2023/07/08 12:41:29;;;;;;;8.40;5.10;;;;;;;33.87;92.58;100395.09;106911;1254;61196;-94
2023/07/08 12:44:24;;;;;;;8.90;5.90;;;;;;;33.83;91.26;100401.09;107016;1253;64874;-95
2023/07/08 12:47:13;;;;;;;8.60;5.60;;;;;;;33.88;88.72;100399.31;106956;1257;61231;-92
2023/07/08 12:50:03;;;;;;;9.20;6.20;;;;;;;33.78;90.46;100402.44;106796;1254;63329;-92
2023/07/08 12:52:52;;;;;;;8.60;5.90;;;;;;;33.71;90.38;100405.51;106951;1254;61246;-91
2023/07/08 12:55:43;;;;;;;7.20;5.40;;;;;;;33.58;92.36;100410.25;107017;1257;61350;-93
2023/07/08 12:58:35;;;;;;;8.50;5.80;;;;;;;33.56;92.25;100407.80;106621;1254;64770;-94
2023/07/08 13:01:25;;;;;;;8.00;5.40;;;;;;;33.44;90.82;100402.94;106790;1259;61348;-95
2023/07/08 13:04:15;;;;;;;10.10;5.40;;;;;;;33.33;90.93;100397.09;106903;1254;64995;-92
2023/07/08 13:07:05;;;;;;;7.10;5.10;;;;;;;33.24;90.68;100398.11;106873;1257;61355;-92
2023/07/08 13:09:53;;;;;;;10.60;6.10;;;;;;;33.31;92.56;100391.97;106320;1254;61343;-91
2023/07/08 13:12:42;;;;;;;7.80;5.60;;;;;;;33.33;92.73;100392.57;106229;1254;65650;-92
2023/07/08 13:15:39;;;;;;;10.10;6.00;;;;;;;33.39;93.46;100390.23;106392;1254;61282;-90
2023/07/08 13:18:36;;;;;;;7.70;5.90;;;;;;;33.72;91.60;100391.15;106669;1254;63875;-90
2023/07/08 13:21:24;;;;;;;9.40;6.00;;;;;;;33.76;90.91;100391.39;106297;1254;61263;-90
2023/07/08 13:24:13;;;;;;;9.30;6.10;;;;;;;33.77;89.30;100396.88;106409;1254;61244;-92
2023/07/08 13:27:04;;;;;;;10.20;6.10;;;;;;;33.72;89.98;100402.81;106355;1253;65905;-93
2023/07/08 13:29:54;;;;;;;6.50;5.30;;;;;;;33.72;89.52;100401.30;106345;1254;61279;-93
2023/07/08 13:32:43;;;;;;;10.80;6.30;;;;;;;33.75;88.86;100402.27;106475;1259;63974;-94
2023/07/08 13:35:37;;;;;;;11.50;6.20;;;;;;;33.83;88.43;100400.46;106333;1254;61298;-93
2023/07/08 13:38:28;;;;;;;12.40;6.70;;;;;;;33.81;87.58;100400.35;106715;1253;60621;-94
2023/07/08 13:41:20;;;;;;;9.40;5.60;;;;;;;33.74;87.68;100398.00;106389;1254;64804;-93
2023/07/08 13:44:09;;;;;;;9.60;6.40;;;;;;;33.70;87.25;100397.68;106483;1254;61588;-93
2023/07/08 13:46:58;;;;;;;10.20;6.10;;;;;;;33.65;85.56;100392.30;106364;1260;64569;-94
2023/07/08 13:49:49;;;;;;;9.70;5.90;;;;;;;33.70;87.37;100393.33;106705;1254;61743;-90
2023/07/08 13:52:37;;;;;;;10.40;6.40;;;;;;;33.71;88.03;100392.39;106299;1254;61142;-91
2023/07/08 13:55:26;;;;;;;8.40;5.50;;;;;;;33.82;87.30;100395.05;106272;1255;65365;-89
2023/07/08 13:58:16;;;;;;;10.20;6.30;;;;;;;33.77;87.03;100390.31;106434;1257;61232;-91
2023/07/08 14:01:05;;;;;;;9.70;6.40;;;;;;;33.71;86.59;100390.62;106368;1257;64226;-91
2023/07/08 14:03:56;;;;;;;6.90;5.60;;;;;;;33.62;86.10;100384.52;106352;1254;61256;-89
2023/07/08 14:06:46;;;;;;;8.90;5.70;;;;;;;33.58;87.02;100386.55;106306;1253;59287;-89
2023/07/08 14:09:36;;;;;;;8.40;4.60;;;;;;;33.42;87.58;100382.52;106241;1254;64904;-89
2023/07/08 14:12:25;;;;;;;6.70;4.20;;;;;;;33.38;87.29;100377.83;106285;1254;59323;-92
2023/07/08 14:15:14;;;;;;;8.00;4.50;;;;;;;33.36;85.27;100382.89;106395;1258;64897;-90
2023/07/08 14:18:02;;;;;;;5.60;4.20;;;;;;;33.38;86.04;100386.01;106127;1254;61178;-90
2023/07/08 14:20:51;;;;;;;10.30;4.50;;;;;;;33.31;87.40;100386.56;106344;1256;61885;-90
2023/07/08 14:23:39;;;;;;;7.10;4.10;;;;;;;33.25;87.67;100382.16;106203;1253;64840;-92
2023/07/08 14:26:30;;;;;;;6.50;4.50;;;;;;;33.28;86.85;100381.29;106632;1253;61226;-91
2023/07/08 14:29:18;;;;;;;7.70;4.50;;;;;;;33.33;85.12;100379.00;106550;1253;63902;-93
2023/07/08 14:32:30;;;;;;;6.20;4.40;;;;;;;33.19;84.56;100381.61;106500;1253;61241;-90
2023/07/08 14:35:30;;;;;;;6.60;4.80;;;;;;;33.11;85.99;100378.88;106292;1256;61212;-90
2023/07/08 14:38:19;;;;;;;7.10;4.70;;;;;;;33.05;87.75;100373.27;106365;1253;65969;-91
2023/07/08 14:41:08;;;;;;;8.30;5.20;;;;;;;33.09;86.88;100373.10;106242;1253;61286;-91
2023/07/08 14:44:02;;;;;;;9.30;5.00;;;;;;;32.97;85.62;100370.58;106483;1254;72111;-90
2023/07/08 14:46:56;;;;;;;9.30;6.10;;;;;;;32.90;85.22;100367.55;106426;1254;61272;-92
2023/07/08 14:49:46;;;;;;;14.30;9.20;;;;;;;32.87;86.61;100369.57;106154;1254;61170;-89
2023/07/08 14:52:35;;;;;;;10.70;5.10;;;;;;;32.81;88.25;100364.51;106203;1253;65866;-89
2023/07/08 14:55:23;;;;;;;9.40;5.10;;;;;;;32.68;89.36;100364.84;106420;1256;61164;-88
2023/07/08 14:58:29;;;;;;;11.10;5.80;;;;;;;32.63;88.13;100362.67;106192;1253;63913;-92
2023/07/08 15:01:19;;;;;;;6.10;4.60;;;;;;;32.51;89.08;100360.62;106379;1254;61317;-92
2023/07/08 15:04:13;;;;;;;9.00;4.70;;;;;;;32.53;89.34;100360.98;106309;1256;61196;-91
2023/07/08 15:07:05;;;;;;;7.70;4.70;;;;;;;32.52;90.38;100360.44;106472;1254;64640;-90
2023/07/08 15:09:54;;;;;;;8.00;4.90;;;;;;;32.52;90.80;100362.79;106353;1254;61351;-91
2023/07/08 15:12:46;;;;;;;7.80;4.50;;;;;;;32.61;90.84;100362.56;106241;1254;64161;-91
2023/07/08 15:15:37;;;;;;;8.50;4.50;;;;;;;32.69;90.40;100359.58;106582;1256;61231;-90
2023/07/08 15:18:25;;;;;;;7.40;4.50;;;;;;;32.72;90.69;100364.61;106268;1254;59701;-90
2023/07/08 15:21:15;;;;;;;6.70;4.20;;;;;;;32.79;92.54;100370.52;106365;1256;66031;-94
2023/07/08 15:24:08;;;;;;;6.30;4.00;;;;;;;32.80;89.96;100364.05;106331;1256;61331;-89
2023/07/08 15:27:09;;;;;;;6.00;4.10;;;;;;;32.81;89.74;100354.40;106329;1254;62432;-90
2023/07/08 15:29:58;;;;;;;7.40;4.20;;;;;;;32.90;88.30;100345.64;106356;1259;61345;-91
2023/07/08 15:32:48;;;;;;;7.20;4.20;;;;;;;32.90;87.83;100344.20;106321;1254;60227;-89
2023/07/08 15:35:36;;;;;;;10.90;4.30;;;;;;;32.92;87.61;100340.35;106601;1254;64781;-92
2023/07/08 15:38:25;;;;;;;6.90;3.90;;;;;;;33.08;84.86;100343.45;106409;1253;61193;-92
2023/07/08 15:41:23;;;;;;;5.80;4.00;;;;;;;33.25;83.09;100348.50;106161;1253;67215;-91
2023/07/08 15:44:12;;;;;;;9.30;3.80;;;;;;;33.47;82.24;100346.31;106574;1253;61352;-91
2023/07/08 15:47:01;;;;;;;6.70;4.30;;;;;;;33.77;79.25;100346.11;106395;1257;61305;-90
2023/07/08 15:49:50;;;;;;;6.40;4.40;;;;;;;33.95;75.41;100344.46;106388;1253;64732;-92
2023/07/08 15:52:39;;;;;;;9.10;4.40;;;;;;;33.94;72.66;100341.02;106496;1254;61374;-92
2023/07/08 15:55:29;;;;;;;4.90;3.80;;;;;;;33.81;72.72;100344.46;106395;1253;64116;-91
2023/07/08 15:58:24;;;;;;;9.60;3.70;;;;;;;33.89;70.83;100338.55;106345;1253;61314;-91
2023/07/08 16:01:18;;;;;;;6.70;4.30;;;;;;;33.93;70.47;100322.83;106538;1257;61240;-92
2023/07/08 16:04:32;;;;;;;10.30;5.50;;;;;;;33.93;69.14;100311.50;106180;1253;64818;-91
2023/07/08 16:07:21;;;;;;;9.80;5.20;;;;;;;34.03;67.54;100309.30;106592;1254;61286;-93
2023/07/08 16:10:10;;;;;;;8.70;4.90;;;;;;;34.07;64.02;100301.25;106206;1260;63914;-94
2023/07/08 16:12:59;;;;;;;11.00;4.40;;;;;;;33.92;62.76;100301.71;106195;1253;61362;-90
2023/07/08 16:15:47;;;;;;;8.40;3.90;;;;;;;33.82;63.13;100301.86;106354;1254;310025;-91
2023/07/08 16:18:37;;;;;;;9.00;4.10;;;;;;;33.82;63.68;100300.89;106542;1253;66043;-93
2023/07/08 16:21:32;;;;;;;5.20;3.60;;;;;;;33.87;62.76;100302.23;106317;1257;60995;-92
2023/07/08 16:24:20;;;;;;;6.80;4.00;;;;;;;33.86;60.43;100303.39;106299;1254;62782;-91
2023/07/08 16:27:09;;;;;;;7.00;3.40;;;;;;;33.86;58.66;100300.64;106314;1257;61221;-92
2023/07/08 16:30:02;;;;;;;;;;;;;;;33.80;56.83;100294.63;106333;1257;60609;-93
2023/07/08 16:32:52;;;;;;;6.20;3.40;;;;;;;33.74;56.68;100289.61;106353;1259;65841;-90
2023/07/08 16:35:41;;;;;;;3.70;2.80;;;;;;;33.57;57.11;100289.61;106409;1253;61153;-89
2023/07/08 16:38:30;;;;;;;4.70;3.10;;;;;;;33.42;57.74;100292.79;106091;1254;64933;-93
2023/07/08 16:41:22;;;;;;;6.60;3.20;;;;;;;33.25;56.65;100288.55;106344;1253;61283;-93
2023/07/08 16:44:15;;;;;;;5.50;2.90;;;;;;;33.09;58.43;100290.95;106581;1256;61311;-93
2023/07/08 16:47:04;;;;;;;8.80;2.70;;;;;;;32.93;58.95;100295.14;106612;1254;66095;-92
2023/07/08 16:49:53;;;;;;;5.30;2.50;;;;;;;32.95;58.90;100296.71;106493;1254;61254;-94
2023/07/08 16:52:41;;;;;;;6.50;3.10;;;;;;;32.85;58.71;100300.88;106301;1254;64874;-93
2023/07/08 16:55:31;;;;;;;8.20;2.60;;;;;;;32.75;58.44;100290.08;106150;1253;61315;-91
2023/07/08 16:58:20;;;;;;;8.20;2.60;;;;;;;32.67;58.47;100290.61;106384;1256;61186;-91
2023/07/08 17:01:17;;;;;;;6.60;2.60;;;;;;;32.64;59.59;100295.35;106311;1253;67486;-92
2023/07/08 17:04:12;;;;;;;5.10;2.50;;;;;;;32.61;58.39;100296.54;106349;1253;61428;-92
2023/07/08 17:07:01;;;;;;;4.60;2.50;;;;;;;32.59;57.81;100292.21;106570;1256;63797;-93
2023/07/08 17:09:51;;;;;;;6.70;2.50;;;;;;;32.52;58.81;100287.00;106419;1254;61245;-91
2023/07/08 17:12:40;;;;;;;7.20;2.70;;;;;;;32.48;59.90;100287.23;106195;1254;61291;-92
2023/07/08 17:15:30;;;;;;;7.10;2.50;;;;;;;32.38;60.03;100289.91;106412;1253;66160;-92
2023/07/08 17:18:20;;;;;;;3.40;2.60;;;;;;;32.31;60.33;100288.44;106486;1256;61165;-91
2023/07/08 17:21:13;;;;;;;3.30;2.70;;;;;;;32.32;60.23;100289.79;106443;1253;63876;-93
2023/07/08 18:43:29;;;;;;;6.60;2.30;;;;;;;31.55;56.40;100315.70;106715;1253;61168;-93
2023/07/08 18:46:22;;;;;;;5.90;2.30;;;;;;;31.62;55.19;100313.56;107124;1254;61227;-92
2023/07/08 18:49:10;;;;;;;6.80;2.30;;;;;;;31.66;55.00;100310.35;107438;1254;65823;-93
2023/07/08 18:52:08;;;;;;;5.20;2.30;;;;;;;31.64;53.86;100309.66;106748;1257;61179;-92
2023/07/08 18:54:58;;;;;;;2.20;1.90;;;;;;;31.62;53.78;100313.23;106717;1257;64486;-95
2023/07/08 18:57:47;;;;;;;7.20;2.80;;;;;;;31.61;54.07;100317.54;106710;1259;61179;-91
2023/07/08 19:00:36;;;;;;;5.50;2.10;;;;;;;31.60;53.91;100315.38;106500;1257;88415;-92
2023/07/08 19:03:29;;;;;;;4.80;2.20;;;;;;;31.60;54.07;100315.22;106712;1261;66186;-92
2023/07/08 19:06:18;;;;;;;5.50;2.40;;;;;;;31.54;52.87;100309.17;106884;1257;61228;-91
2023/07/08 19:09:07;;;;;;;5.60;2.20;;;;;;;31.51;53.16;100308.73;106789;1258;63994;-91
2023/07/08 19:11:55;;;;;;;4.50;2.20;;;;;;;31.43;53.27;100310.14;106459;1258;61264;-90
2023/07/08 19:14:49;;;;;;;5.30;2.60;;;;;;;31.36;53.18;100308.63;106815;1262;61310;-93
2023/07/08 19:18:01;;;;;;;4.30;2.20;;;;;;;31.32;52.92;100311.89;106553;1258;64969;-92
2023/07/08 19:20:52;;;;;;;9.50;2.80;;;;;;;31.44;52.65;100311.98;106499;1263;61325;-92
2023/07/08 19:23:47;;;;;;;5.10;2.10;;;;;;;31.40;52.92;100310.91;106267;1257;64261;-92
2023/07/08 19:26:40;;;;;;;2.80;2.40;;;;;;;31.30;53.42;100308.94;106237;1259;61320;-91
2023/07/08 19:29:29;;;;;;;6.00;2.80;;;;;;;31.19;53.42;100310.94;106685;1258;61180;-92
2023/07/08 19:32:28;;;;;;;7.00;2.20;;;;;;;31.19;53.21;100311.75;106522;1263;64753;-94
2023/07/08 19:35:24;;;;;;;5.10;2.10;;;;;;;31.20;53.19;100309.80;106536;1263;62155;-93
2023/07/08 19:38:16;;;;;;;5.40;2.40;;;;;;;31.26;52.59;100308.90;106421;1257;64399;-93
2023/07/08 19:41:05;;;;;;;4.70;2.10;;;;;;;31.25;52.46;100303.60;107081;1263;61117;-93
2023/07/08 19:43:56;;;;;;;5.50;2.50;;;;;;;31.16;52.64;100302.52;106361;1258;61234;-94
2023/07/08 19:46:45;;;;;;;2.40;2.00;;;;;;;31.15;53.09;100302.86;106213;1257;65308;-93
2023/07/08 19:49:34;;;;;;;6.40;1.90;;;;;;;31.16;53.48;100301.79;106481;1257;61726;-94
2023/07/08 19:52:23;;;;;;;4.50;2.40;;;;;;;31.08;52.99;100300.85;106493;1257;63852;-93
2023/07/08 19:55:14;;;;;;;4.80;2.30;;;;;;;31.00;53.51;100300.23;106290;1262;61246;-93
2023/07/08 19:58:04;;;;;;;7.00;2.30;;;;;;;30.99;53.58;100297.41;106546;1257;61412;-92
2023/07/08 20:00:53;;;;;;;4.70;2.10;;;;;;;31.01;52.97;100295.78;106368;1257;64672;-93
2023/07/08 20:03:42;;;;;;;4.40;2.20;;;;;;;30.92;52.79;100292.11;106267;1258;61261;-93
2023/07/08 20:06:32;;;;;;;4.30;2.10;;;;;;;30.88;53.02;100293.21;106094;1258;73846;-92
2023/07/08 20:09:23;;;;;;;3.40;1.70;;;;;;;30.84;52.83;100291.08;106415;1258;61023;-93
2023/07/08 20:12:15;;;;;;;8.50;2.70;;;;;;;30.82;52.24;100287.70;106428;1260;61377;-95
2023/07/08 20:15:04;;;;;;;5.60;2.20;;;;;;;30.91;51.74;100278.27;106138;1259;64611;-93
2023/07/08 20:17:55;;;;;;;9.80;2.10;;;;;;;30.96;51.10;100276.59;106375;1257;61371;-92
2023/07/08 20:20:44;;;;;;;3.00;2.00;;;;;;;30.94;50.33;100278.22;106420;1257;63472;-92
2023/07/08 20:23:37;;;;;;;;;;;;;;;30.88;50.46;100278.38;106211;1257;61245;-92
2023/07/08 20:26:31;;;;;;;3.30;2.20;;;;;;;30.98;50.00;100290.66;106191;1261;61308;-92
2023/07/08 20:29:21;;;;;;;5.70;2.00;;;;;;;31.09;49.91;100287.05;106312;1262;66152;-92
2023/07/08 20:32:13;;;;;;;3.80;2.40;;;;;;;31.06;49.94;100291.77;106376;1257;61329;-91
2023/07/08 20:35:02;;;;;;;5.50;1.90;;;;;;;31.00;49.76;100291.77;106410;1261;62771;-92
2023/07/08 20:37:54;;;;;;;5.50;2.20;;;;;;;31.00;49.01;100294.51;106319;1263;61686;-93
2023/07/08 20:40:44;;;;;;;3.20;1.90;;;;;;;30.99;49.21;100295.58;105974;1263;61352;-92
2023/07/08 20:43:33;;;;;;;9.80;1.90;;;;;;;31.00;48.78;100294.12;105878;1259;64647;-90
2023/07/08 20:46:25;;;;;;;7.60;2.20;;;;;;;31.13;48.38;100297.72;106460;1258;61296;-91
2023/07/08 20:49:14;;;;;;;4.30;2.20;;;;;;;31.19;48.10;100291.34;106306;1259;64755;-92
2023/07/08 20:52:04;;;;;;;5.10;2.10;;;;;;;31.09;48.34;100292.38;106110;1263;61201;-93
2023/07/08 20:54:54;;;;;;;6.00;2.10;;;;;;;31.08;47.99;100295.84;106220;1257;61286;-93
2023/07/08 20:57:45;;;;;;;7.40;2.40;;;;;;;31.07;47.73;100292.55;106351;1257;66023;-92
2023/07/08 21:00:34;;;;;;;3.30;2.30;;;;;;;31.07;47.71;100291.92;106143;1262;61599;-93
2023/07/08 21:03:23;;;;;;;4.50;2.10;;;;;;;30.96;48.10;100288.77;106272;1257;63984;-93
2023/07/08 21:06:24;;;;;;;7.00;2.20;;;;;;;30.90;47.91;100291.25;106300;1264;61269;-94
2023/07/08 21:09:14;;;;;;;6.80;2.20;;;;;;;30.90;48.25;100289.65;106039;1259;61271;-92
2023/07/08 21:12:04;;;;;;;5.80;2.20;;;;;;;30.99;48.01;100289.44;106100;1257;66069;-92
2023/07/08 21:14:52;;;;;;;6.70;2.20;;;;;;;31.02;47.97;100292.14;106084;1257;61337;-93